Time;durP1;ratioP1;P1;durP2;ratioP2;P2;SDS_P1;SDS_P2;PMS_P1;PMS_P2;Temp;Humidity;BMP_temperature;BMP_pressure;BME280_temperature;BME280_humidity;BME280_pressure;Samples;Min_cycle;Max_cycle;Signal;HPM_P1;HPM_P2
2021/12/24 00:01:59;;;;;;;26.05;19.52;;;;;;;;;;5027290;28;20033;-80
2021/12/24 00:04:26;;;;;;;27.23;20.88;;;;;;;;;;5029441;28;20063;-81
2021/12/24 00:06:53;;;;;;;26.60;20.65;;;;;;;;;;5007212;28;20049;-81
2021/12/24 00:09:21;;;;;;;30.05;22.30;;;;;;;;;;5001636;28;20042;-81
2021/12/24 00:11:48;;;;;;;28.92;22.25;;;;;;;;;;5010877;28;20033;-81
2021/12/24 00:14:15;;;;;;;30.15;21.13;;;;;;;;;;5026314;28;20057;-80
2021/12/24 00:16:52;;;;;;;29.77;22.50;;;;;;;;;;5004596;28;20097;-80
2021/12/24 00:19:33;;;;;;;28.15;21.48;;;;;;;;;;5021805;28;20508;-80
2021/12/24 00:35:45;;;;;;;27.45;19.92;;;;;;;;;;5021927;28;20096;-81
2021/12/24 00:38:12;;;;;;;26.92;19.85;;;;;;;;;;5026077;28;20108;-81
2021/12/24 00:40:41;;;;;;;24.70;18.63;;;;;;;;;;5022752;28;20389;-80
2021/12/24 00:43:08;;;;;;;22.95;17.15;;;;;;;;;;5022169;28;20029;-82
2021/12/24 00:45:36;;;;;;;21.38;16.05;;;;;;;;;;5023351;28;20166;-82
2021/12/24 00:48:03;;;;;;;23.08;16.17;;;;;;;;;;5003037;28;20021;-81
2021/12/24 00:50:31;;;;;;;22.77;17.00;;;;;;;;;;5029325;28;20032;-81
2021/12/24 00:53:04;;;;;;;23.65;16.73;;;;;;;;;;5028649;28;20025;-81
2021/12/24 00:55:32;;;;;;;26.45;18.98;;;;;;;;;;5029064;28;20025;-81
2021/12/24 00:58:00;;;;;;;26.38;19.33;;;;;;;;;;5027658;28;20017;-81
2021/12/24 01:00:30;;;;;;;28.63;21.20;;;;;;;;;;5026662;28;20468;-81
2021/12/24 01:02:58;;;;;;;27.98;19.98;;;;;;;;;;5013542;28;20026;-82
2021/12/24 01:05:26;;;;;;;26.02;19.25;;;;;;;;;;5024498;28;20029;-82
2021/12/24 01:07:53;;;;;;;25.17;18.75;;;;;;;;;;5018179;28;20048;-80
2021/12/24 01:10:21;;;;;;;24.13;16.80;;;;;;;;;;5022231;28;20025;-79
2021/12/24 01:12:47;;;;;;;21.27;16.10;;;;;;;;;;5021939;28;20087;-81
2021/12/24 01:15:15;;;;;;;29.23;18.10;;;;;;;;;;5029061;28;20403;-79
2021/12/24 01:20:30;;;;;;;25.55;17.63;;;;;;;;;;5031655;28;20531;-81
2021/12/24 01:25:47;;;;;;;22.27;16.50;;;;;;;;;;5030756;28;20159;-82
2021/12/24 01:39:52;;;;;;;22.83;16.58;;;;;;;;;;5007898;28;20037;-82
2021/12/24 01:45:20;;;;;;;24.63;15.93;;;;;;;;;;5029241;28;20106;-79
2021/12/24 01:47:46;;;;;;;23.02;16.63;;;;;;;;;;5040361;28;20044;-79
2021/12/24 01:50:13;;;;;;;27.20;19.35;;;;;;;;;;5038350;28;20385;-83
2021/12/24 01:52:40;;;;;;;29.15;19.85;;;;;;;;;;5031405;28;20112;-81
2021/12/24 01:55:10;;;;;;;33.38;21.98;;;;;;;;;;5036507;28;20048;-82
2021/12/24 01:57:37;;;;;;;39.83;25.25;;;;;;;;;;5034094;28;20037;-81
2021/12/24 02:00:05;;;;;;;39.53;26.15;;;;;;;;;;5018402;28;20076;-82
2021/12/24 02:02:32;;;;;;;42.97;27.83;;;;;;;;;;5036223;28;20044;-81
2021/12/24 02:04:58;;;;;;;45.53;30.17;;;;;;;;;;5036018;28;20555;-82
2021/12/24 02:07:25;;;;;;;47.60;31.70;;;;;;;;;;5031352;28;20481;-81
2021/12/24 02:09:54;;;;;;;47.63;28.25;;;;;;;;;;5014020;28;20412;-82
2021/12/24 02:12:20;;;;;;;41.85;27.02;;;;;;;;;;5033706;28;20075;-80
2021/12/24 02:14:51;;;;;;;44.33;28.75;;;;;;;;;;5028996;28;20033;-81
2021/12/24 02:17:36;;;;;;;45.38;29.00;;;;;;;;;;5023361;28;20168;-81
2021/12/24 02:28:29;;;;;;;43.00;27.10;;;;;;;;;;5023051;28;20041;-81
2021/12/24 02:30:55;;;;;;;40.58;25.80;;;;;;;;;;5029214;28;20041;-81
2021/12/24 02:33:22;;;;;;;42.30;26.88;;;;;;;;;;5031362;28;20501;-82
2021/12/24 02:35:48;;;;;;;45.33;28.13;;;;;;;;;;5029802;28;20485;-82
2021/12/24 02:38:15;;;;;;;43.17;28.38;;;;;;;;;;5014448;28;20048;-84
2021/12/24 02:40:41;;;;;;;48.15;30.98;;;;;;;;;;5026453;28;20277;-82
2021/12/24 02:43:11;;;;;;;42.90;27.98;;;;;;;;;;5029965;28;20033;-82
2021/12/24 02:45:39;;;;;;;43.22;28.90;;;;;;;;;;5027431;28;20029;-81
2021/12/24 02:56:05;;;;;;;54.05;32.95;;;;;;;;;;5029550;28;20036;-80
2021/12/24 02:58:45;;;;;;;52.97;30.30;;;;;;;;;;5020290;28;20491;-81
2021/12/24 03:01:12;;;;;;;53.67;33.17;;;;;;;;;;5025934;28;20449;-82
2021/12/24 03:03:39;;;;;;;53.42;32.15;;;;;;;;;;5027067;28;20033;-80
2021/12/24 03:06:05;;;;;;;49.63;29.08;;;;;;;;;;5011538;28;20380;-80
2021/12/24 03:08:32;;;;;;;45.45;28.10;;;;;;;;;;5006068;28;20543;-82
2021/12/24 03:10:59;;;;;;;46.00;28.00;;;;;;;;;;5024997;28;20029;-82
2021/12/24 03:13:26;;;;;;;39.78;23.92;;;;;;;;;;5023776;28;20025;-81
2021/12/24 03:15:57;;;;;;;35.35;21.45;;;;;;;;;;5020902;28;20045;-81
2021/12/24 03:18:28;;;;;;;37.90;22.85;;;;;;;;;;5003507;28;20045;-81
2021/12/24 03:21:03;;;;;;;39.08;23.42;;;;;;;;;;5020425;28;20474;-82
2021/12/24 03:23:45;;;;;;;34.10;20.27;;;;;;;;;;5003983;28;20065;-82
2021/12/24 03:26:13;;;;;;;38.35;22.75;;;;;;;;;;5025955;28;20461;-81
2021/12/24 03:28:40;;;;;;;36.75;23.13;;;;;;;;;;5008372;28;20513;-81
2021/12/24 03:31:07;;;;;;;37.63;23.58;;;;;;;;;;5026280;28;20079;-80
2021/12/24 03:33:35;;;;;;;39.88;23.70;;;;;;;;;;5024990;28;20071;-81
2021/12/24 03:36:02;;;;;;;39.47;24.10;;;;;;;;;;5008183;28;20072;-80
2021/12/24 03:38:28;;;;;;;36.95;22.30;;;;;;;;;;5009567;28;20055;-79
2021/12/24 03:40:57;;;;;;;44.08;27.10;;;;;;;;;;5023974;28;20084;-82
2021/12/24 03:43:23;;;;;;;42.42;25.70;;;;;;;;;;5008885;28;20038;-81
2021/12/24 03:48:39;;;;;;;44.25;27.67;;;;;;;;;;5020727;28;20029;-83
2021/12/24 03:56:29;;;;;;;42.33;25.92;;;;;;;;;;5022185;28;20499;-80
2021/12/24 03:58:55;;;;;;;44.20;26.88;;;;;;;;;;5019478;28;20064;-82
2021/12/24 04:01:21;;;;;;;42.00;24.10;;;;;;;;;;4999110;28;20042;-80
2021/12/24 04:03:48;;;;;;;32.75;21.15;;;;;;;;;;5019471;28;20460;-81
2021/12/24 04:06:14;;;;;;;32.63;21.15;;;;;;;;;;5021097;28;20416;-82
2021/12/24 04:08:41;;;;;;;34.78;22.02;;;;;;;;;;5020630;28;20153;-82
2021/12/24 04:11:07;;;;;;;35.35;20.38;;;;;;;;;;5020215;28;20033;-80
2021/12/24 04:13:34;;;;;;;32.15;20.92;;;;;;;;;;5020989;28;20126;-82
2021/12/24 04:16:00;;;;;;;37.58;21.35;;;;;;;;;;5022177;28;20036;-81
2021/12/24 04:26:30;;;;;;;38.88;24.85;;;;;;;;;;5019134;28;20043;-81
2021/12/24 04:28:57;;;;;;;35.78;23.27;;;;;;;;;;5019564;28;20060;-81
2021/12/24 04:31:31;;;;;;;33.05;21.48;;;;;;;;;;5018033;28;20038;-82
2021/12/24 04:34:00;;;;;;;38.10;25.52;;;;;;;;;;5002276;28;20025;-81
2021/12/24 05:03:13;;;;;;;40.38;25.13;;;;;;;;;;5017856;28;20049;-82
2021/12/24 05:05:53;;;;;;;52.35;29.30;;;;;;;;;;5004087;28;20068;-83
2021/12/24 05:08:23;;;;;;;49.95;28.98;;;;;;;;;;5022399;28;20083;-82
2021/12/24 05:10:51;;;;;;;52.20;30.98;;;;;;;;;;5019220;28;20041;-82
2021/12/24 05:13:19;;;;;;;52.05;30.88;;;;;;;;;;5024622;28;20070;-84
2021/12/24 05:15:48;;;;;;;59.85;37.30;;;;;;;;;;5005457;28;20643;-83
2021/12/24 05:23:39;;;;;;;102.85;56.50;;;;;;;;;;5019312;28;20057;-82
2021/12/24 05:26:05;;;;;;;115.95;62.05;;;;;;;;;;5018893;28;20042;-83
2021/12/24 05:28:32;;;;;;;121.20;64.30;;;;;;;;;;5022591;28;20022;-81
2021/12/24 05:30:58;;;;;;;134.30;68.57;;;;;;;;;;5021787;28;20115;-81
2021/12/24 05:33:24;;;;;;;149.45;73.57;;;;;;;;;;5028326;28;20034;-82
2021/12/24 05:35:51;;;;;;;138.20;71.93;;;;;;;;;;5030172;28;20055;-81
2021/12/24 05:38:17;;;;;;;143.98;75.45;;;;;;;;;;5028490;28;20408;-82
2021/12/24 05:40:44;;;;;;;137.93;70.75;;;;;;;;;;5007845;28;20053;-81
2021/12/24 05:43:11;;;;;;;139.70;71.20;;;;;;;;;;5022009;28;20415;-81
2021/12/24 05:45:38;;;;;;;150.18;72.25;;;;;;;;;;5026594;28;20025;-81
2021/12/24 05:48:04;;;;;;;128.18;66.53;;;;;;;;;;5025616;28;20030;-83
2021/12/24 05:50:31;;;;;;;124.63;64.88;;;;;;;;;;5023936;28;20028;-82
2021/12/24 05:52:57;;;;;;;135.65;71.20;;;;;;;;;;5006153;28;20034;-83
2021/12/24 05:55:23;;;;;;;150.93;75.30;;;;;;;;;;5027371;28;20034;-82
2021/12/24 05:57:50;;;;;;;141.98;74.70;;;;;;;;;;5023947;28;20036;-82
2021/12/24 06:00:17;;;;;;;141.52;71.78;;;;;;;;;;5021068;28;20025;-83
2021/12/24 06:02:43;;;;;;;120.03;63.35;;;;;;;;;;5022214;28;20036;-83
2021/12/24 06:05:10;;;;;;;116.65;64.38;;;;;;;;;;5025394;28;20029;-81
2021/12/24 06:07:36;;;;;;;120.90;65.43;;;;;;;;;;5025899;28;20022;-81
2021/12/24 06:10:03;;;;;;;127.88;68.60;;;;;;;;;;5025230;28;20021;-82
2021/12/24 06:12:29;;;;;;;127.70;65.75;;;;;;;;;;5012589;28;20025;-81
2021/12/24 06:15:02;;;;;;;109.93;61.65;;;;;;;;;;5009806;28;20037;-83
2021/12/24 06:17:28;;;;;;;115.80;59.53;;;;;;;;;;5008649;28;20041;-83
2021/12/24 06:19:55;;;;;;;108.22;61.80;;;;;;;;;;5026279;28;20025;-83
2021/12/24 06:22:21;;;;;;;111.88;60.55;;;;;;;;;;5024361;28;20033;-83
2021/12/24 06:24:47;;;;;;;104.57;59.15;;;;;;;;;;5026640;28;20033;-83
2021/12/24 06:27:16;;;;;;;96.13;55.80;;;;;;;;;;5010847;28;20030;-83
2021/12/24 06:29:42;;;;;;;93.70;54.90;;;;;;;;;;5030160;28;20030;-82
2021/12/24 06:32:09;;;;;;;95.88;56.47;;;;;;;;;;5029256;28;20029;-82
2021/12/24 06:34:35;;;;;;;102.78;57.80;;;;;;;;;;5022741;28;20602;-83
2021/12/24 06:37:04;;;;;;;102.63;58.42;;;;;;;;;;5021810;28;20068;-83
2021/12/24 06:39:30;;;;;;;85.60;48.60;;;;;;;;;;5005451;28;20423;-83
2021/12/24 06:41:56;;;;;;;95.03;52.00;;;;;;;;;;5008148;28;20036;-82
2021/12/24 06:44:23;;;;;;;91.63;55.78;;;;;;;;;;5020020;28;20112;-83
2021/12/24 06:46:49;;;;;;;93.55;52.78;;;;;;;;;;5021013;28;20099;-82
2021/12/24 06:49:15;;;;;;;90.22;54.30;;;;;;;;;;5022887;28;20503;-84
2021/12/24 06:51:42;;;;;;;102.93;55.17;;;;;;;;;;5018473;28;20034;-83
2021/12/24 06:54:10;;;;;;;97.75;56.72;;;;;;;;;;5023067;28;20056;-83
2021/12/24 06:56:37;;;;;;;103.07;56.05;;;;;;;;;;5024338;28;20105;-81
2021/12/24 06:59:04;;;;;;;128.77;68.30;;;;;;;;;;5025989;28;20029;-83
2021/12/24 07:01:30;;;;;;;135.68;68.15;;;;;;;;;;5008594;28;20121;-82
2021/12/24 07:03:56;;;;;;;118.80;66.93;;;;;;;;;;5032079;28;20037;-83
2021/12/24 07:06:23;;;;;;;118.35;63.75;;;;;;;;;;5013760;28;20056;-84
2021/12/24 07:08:49;;;;;;;120.38;63.65;;;;;;;;;;5009384;28;20123;-81
2021/12/24 07:11:15;;;;;;;126.80;64.28;;;;;;;;;;5024578;28;20033;-83
2021/12/24 07:13:42;;;;;;;136.30;66.75;;;;;;;;;;5019586;28;20452;-81
2021/12/24 07:16:08;;;;;;;139.43;68.93;;;;;;;;;;5023560;28;20025;-83
2021/12/24 07:18:36;;;;;;;132.45;68.82;;;;;;;;;;5035049;28;20152;-84
2021/12/24 07:21:35;;;;;;;116.75;64.22;;;;;;;;;;5017407;28;20030;-83
2021/12/24 07:24:02;;;;;;;131.60;65.45;;;;;;;;;;5017064;28;20041;-82
2021/12/24 07:26:28;;;;;;;128.93;67.72;;;;;;;;;;5036396;28;20025;-81
2021/12/24 07:28:55;;;;;;;118.63;62.90;;;;;;;;;;5024808;28;20087;-82
2021/12/24 07:31:21;;;;;;;118.85;64.13;;;;;;;;;;5027357;28;20041;-82
2021/12/24 07:33:47;;;;;;;127.90;65.60;;;;;;;;;;5022775;28;20032;-82
2021/12/24 07:36:14;;;;;;;116.32;60.80;;;;;;;;;;5024637;28;20030;-82
2021/12/24 07:38:41;;;;;;;122.18;62.78;;;;;;;;;;5007472;28;20124;-86
2021/12/24 07:41:07;;;;;;;121.60;63.65;;;;;;;;;;5027399;28;20033;-83
2021/12/24 07:43:33;;;;;;;114.53;62.33;;;;;;;;;;5025033;28;20037;-82
2021/12/24 07:46:00;;;;;;;108.53;61.20;;;;;;;;;;5023750;28;20060;-83
2021/12/24 07:48:28;;;;;;;120.55;64.70;;;;;;;;;;5005304;28;20120;-83
2021/12/24 07:53:22;;;;;;;118.55;62.42;;;;;;;;;;5022222;28;20021;-82
2021/12/24 07:55:50;;;;;;;117.50;59.95;;;;;;;;;;5023303;28;20030;-81
2021/12/24 07:58:17;;;;;;;108.85;59.30;;;;;;;;;;5003621;28;20124;-82
2021/12/24 08:00:45;;;;;;;121.45;63.35;;;;;;;;;;5020235;28;20036;-81
2021/12/24 08:03:11;;;;;;;115.57;63.55;;;;;;;;;;5022322;28;20040;-82
2021/12/24 08:05:40;;;;;;;116.22;61.60;;;;;;;;;;5000085;28;20439;-82
2021/12/24 08:08:06;;;;;;;120.50;62.38;;;;;;;;;;5019367;28;20409;-83
2021/12/24 08:10:34;;;;;;;134.70;63.05;;;;;;;;;;5019001;28;20072;-82
2021/12/24 08:13:01;;;;;;;121.18;63.70;;;;;;;;;;4997809;28;20041;-82
2021/12/24 08:15:28;;;;;;;120.90;62.92;;;;;;;;;;5005583;28;20037;-82
2021/12/24 08:17:54;;;;;;;119.82;64.05;;;;;;;;;;5026144;28;20041;-83
2021/12/24 08:20:25;;;;;;;120.88;63.72;;;;;;;;;;5006724;28;20070;-82
2021/12/24 08:22:53;;;;;;;140.40;65.07;;;;;;;;;;5007184;28;20025;-83
2021/12/24 08:25:20;;;;;;;126.63;65.65;;;;;;;;;;5003365;28;20029;-83
2021/12/24 08:27:46;;;;;;;122.32;59.83;;;;;;;;;;5022471;28;20078;-83
2021/12/24 08:30:13;;;;;;;130.18;65.60;;;;;;;;;;5028958;28;20236;-82
2021/12/24 08:32:41;;;;;;;121.90;63.33;;;;;;;;;;5026933;28;20048;-82
2021/12/24 08:35:08;;;;;;;128.82;66.50;;;;;;;;;;5026907;28;20036;-81
2021/12/24 08:37:35;;;;;;;117.97;63.08;;;;;;;;;;5020647;28;20021;-81
2021/12/24 08:40:02;;;;;;;117.18;60.22;;;;;;;;;;4998258;28;20032;-83
2021/12/24 08:42:28;;;;;;;122.55;64.38;;;;;;;;;;5002524;28;20064;-82
2021/12/24 08:44:54;;;;;;;118.15;62.42;;;;;;;;;;5002349;28;20041;-82
2021/12/24 08:47:21;;;;;;;125.53;64.60;;;;;;;;;;5005070;28;20040;-84
2021/12/24 08:49:47;;;;;;;120.07;62.63;;;;;;;;;;5026643;28;20120;-82
2021/12/24 08:52:14;;;;;;;120.15;63.45;;;;;;;;;;5003440;28;20396;-82
2021/12/24 08:54:42;;;;;;;120.68;61.70;;;;;;;;;;5018927;28;20144;-83
2021/12/24 08:57:08;;;;;;;121.45;61.25;;;;;;;;;;5023367;28;20310;-82
2021/12/24 08:59:35;;;;;;;130.55;64.85;;;;;;;;;;5025615;28;20926;-83
2021/12/24 09:02:03;;;;;;;124.72;63.88;;;;;;;;;;5007908;28;20045;-82
2021/12/24 09:04:29;;;;;;;127.68;65.30;;;;;;;;;;5025578;28;20385;-83
2021/12/24 09:06:56;;;;;;;130.75;66.55;;;;;;;;;;5004124;28;20414;-81
2021/12/24 09:09:22;;;;;;;134.55;66.35;;;;;;;;;;5005582;28;20034;-83
2021/12/24 09:11:51;;;;;;;151.57;73.25;;;;;;;;;;5024665;28;20037;-83
2021/12/24 09:14:18;;;;;;;160.43;80.15;;;;;;;;;;5024895;28;20029;-83
2021/12/24 09:16:47;;;;;;;173.52;81.72;;;;;;;;;;5007767;28;20076;-82
2021/12/24 09:19:18;;;;;;;177.05;82.03;;;;;;;;;;5034156;28;20049;-83
2021/12/24 09:21:45;;;;;;;168.43;77.68;;;;;;;;;;5028155;28;20073;-84
2021/12/24 09:24:17;;;;;;;171.07;80.88;;;;;;;;;;5014400;28;20041;-83
2021/12/24 09:26:44;;;;;;;161.52;76.88;;;;;;;;;;5026067;28;20033;-83
2021/12/24 09:29:11;;;;;;;174.43;83.97;;;;;;;;;;5008573;28;20049;-83
2021/12/24 09:31:37;;;;;;;174.77;85.78;;;;;;;;;;5026436;28;20040;-82
2021/12/24 09:34:04;;;;;;;173.23;80.63;;;;;;;;;;5003585;28;20516;-83
2021/12/24 09:36:30;;;;;;;187.73;90.90;;;;;;;;;;5025430;28;20030;-83
2021/12/24 09:38:58;;;;;;;177.10;88.80;;;;;;;;;;5022469;28;20139;-82
2021/12/24 09:41:25;;;;;;;191.00;91.68;;;;;;;;;;5022968;28;20120;-82
2021/12/24 09:43:57;;;;;;;190.07;90.00;;;;;;;;;;5025616;28;20037;-83
2021/12/24 09:46:25;;;;;;;202.70;96.38;;;;;;;;;;5031004;28;20107;-82
2021/12/24 09:48:52;;;;;;;197.85;93.88;;;;;;;;;;5026898;28;20061;-82
2021/12/24 09:51:18;;;;;;;181.57;88.70;;;;;;;;;;5025539;28;20040;-82
2021/12/24 09:53:45;;;;;;;179.57;86.25;;;;;;;;;;5008042;28;20029;-83
2021/12/24 09:56:12;;;;;;;175.25;83.22;;;;;;;;;;5029940;28;20027;-81
2021/12/24 09:58:38;;;;;;;164.88;79.85;;;;;;;;;;5032478;28;20101;-84
2021/12/24 10:01:07;;;;;;;150.75;76.07;;;;;;;;;;5029602;28;20028;-84
2021/12/24 10:03:35;;;;;;;144.80;73.93;;;;;;;;;;5022353;28;20038;-82
2021/12/24 10:06:03;;;;;;;140.98;72.63;;;;;;;;;;5023823;28;20033;-83
2021/12/24 10:08:31;;;;;;;139.52;69.63;;;;;;;;;;5028783;28;20022;-82
2021/12/24 10:11:02;;;;;;;136.35;69.28;;;;;;;;;;5026098;28;20120;-82
2021/12/24 10:13:29;;;;;;;128.73;64.93;;;;;;;;;;5026579;28;20025;-83
2021/12/24 10:16:05;;;;;;;132.27;63.33;;;;;;;;;;5005693;28;20022;-84
2021/12/24 10:18:39;;;;;;;122.15;63.95;;;;;;;;;;5007344;28;20370;-86
2021/12/24 10:21:06;;;;;;;126.60;61.97;;;;;;;;;;5032579;28;20543;-83
2021/12/24 10:23:43;;;;;;;121.93;60.83;;;;;;;;;;5017104;28;20030;-83
2021/12/24 10:26:21;;;;;;;123.25;61.40;;;;;;;;;;5010852;28;20391;-84
2021/12/24 10:28:54;;;;;;;115.18;60.72;;;;;;;;;;5028780;28;20033;-83
2021/12/24 10:31:21;;;;;;;120.03;57.00;;;;;;;;;;5002604;28;20128;-82
2021/12/24 10:34:06;;;;;;;119.63;63.38;;;;;;;;;;5025433;28;20045;-83
2021/12/24 10:36:32;;;;;;;121.90;61.92;;;;;;;;;;5021903;28;20026;-83
2021/12/24 10:38:59;;;;;;;121.20;63.38;;;;;;;;;;5024863;28;20117;-82
2021/12/24 10:41:28;;;;;;;133.25;66.40;;;;;;;;;;5022547;28;20626;-84
2021/12/24 10:43:54;;;;;;;121.40;61.65;;;;;;;;;;5023892;28;20041;-83
2021/12/24 10:46:25;;;;;;;124.15;63.83;;;;;;;;;;5024257;28;20380;-82
2021/12/24 10:49:04;;;;;;;104.60;56.65;;;;;;;;;;5025446;28;20036;-81
2021/12/24 10:54:18;;;;;;;106.88;59.10;;;;;;;;;;5022370;28;20496;-82
2021/12/24 10:56:44;;;;;;;111.93;57.30;;;;;;;;;;5013468;28;20416;-83
2021/12/24 10:59:12;;;;;;;116.97;60.38;;;;;;;;;;5028932;28;20030;-82
2021/12/24 11:04:45;;;;;;;109.82;60.08;;;;;;;;;;5017989;28;20578;-82
2021/12/24 11:07:31;;;;;;;105.03;57.38;;;;;;;;;;5004203;28;20037;-83
2021/12/24 11:10:12;;;;;;;95.55;51.35;;;;;;;;;;5022423;28;20068;-84
2021/12/24 11:12:40;;;;;;;97.80;54.67;;;;;;;;;;5023366;28;20021;-84
2021/12/24 11:15:25;;;;;;;100.07;56.53;;;;;;;;;;5022787;28;20038;-84
2021/12/24 11:17:53;;;;;;;89.68;49.35;;;;;;;;;;5023854;28;20060;-82
2021/12/24 11:20:20;;;;;;;97.90;57.20;;;;;;;;;;5022877;28;20033;-81
2021/12/24 11:22:50;;;;;;;97.30;56.17;;;;;;;;;;5022172;28;20040;-84
2021/12/24 11:25:18;;;;;;;84.80;48.15;;;;;;;;;;5020900;28;23277;-82
2021/12/24 11:27:44;;;;;;;86.63;45.15;;;;;;;;;;5022767;28;20037;-81
2021/12/24 11:30:11;;;;;;;81.82;45.08;;;;;;;;;;5022222;28;20063;-82
2021/12/24 11:32:37;;;;;;;86.20;46.55;;;;;;;;;;5022807;28;20386;-82
2021/12/24 11:35:04;;;;;;;72.13;41.75;;;;;;;;;;5003964;28;20030;-83
2021/12/24 11:37:30;;;;;;;82.93;47.10;;;;;;;;;;5004209;28;20068;-83
2021/12/24 11:39:58;;;;;;;91.93;52.65;;;;;;;;;;5000266;28;20036;-82
2021/12/24 11:42:25;;;;;;;95.88;54.42;;;;;;;;;;5023900;28;20029;-82
2021/12/24 11:44:52;;;;;;;90.13;50.25;;;;;;;;;;5030503;28;20025;-82
2021/12/24 11:47:18;;;;;;;94.10;51.97;;;;;;;;;;5025557;28;20056;-83
2021/12/24 11:49:45;;;;;;;162.52;102.10;;;;;;;;;;5006497;28;20061;-84
2021/12/24 11:52:12;;;;;;;125.57;65.03;;;;;;;;;;5025374;28;20029;-80
2021/12/24 11:54:39;;;;;;;105.28;58.40;;;;;;;;;;5016250;28;20032;-83
2021/12/24 11:57:16;;;;;;;119.43;62.33;;;;;;;;;;5024322;28;20484;-84
2021/12/24 11:59:43;;;;;;;131.35;67.68;;;;;;;;;;5021187;28;20136;-82
2021/12/24 12:02:10;;;;;;;128.23;67.07;;;;;;;;;;5015004;28;20037;-81
2021/12/24 12:04:37;;;;;;;145.30;73.65;;;;;;;;;;5022565;28;20037;-83
2021/12/24 12:07:16;;;;;;;146.82;79.18;;;;;;;;;;4998842;28;20044;-82
2021/12/24 12:09:43;;;;;;;167.90;87.13;;;;;;;;;;5025618;28;20470;-82
2021/12/24 12:12:14;;;;;;;178.93;86.82;;;;;;;;;;5023494;28;20369;-83
2021/12/24 12:14:41;;;;;;;174.57;90.43;;;;;;;;;;5026629;28;20029;-82
2021/12/24 12:17:08;;;;;;;206.93;106.13;;;;;;;;;;4999322;28;20050;-83
2021/12/24 12:22:33;;;;;;;209.45;102.68;;;;;;;;;;4999157;28;20103;-82
2021/12/24 12:25:01;;;;;;;207.88;98.95;;;;;;;;;;5000454;28;20072;-83
2021/12/24 12:27:43;;;;;;;189.13;98.50;;;;;;;;;;4982304;28;20038;-80
2021/12/24 12:30:29;;;;;;;211.27;102.05;;;;;;;;;;5000582;28;20030;-82
2021/12/24 12:33:18;;;;;;;203.75;103.75;;;;;;;;;;5001170;28;20034;-81
2021/12/24 12:35:49;;;;;;;197.70;99.22;;;;;;;;;;4999654;28;20568;-81
2021/12/24 12:38:26;;;;;;;191.02;97.93;;;;;;;;;;4983786;28;20022;-83
2021/12/24 12:40:53;;;;;;;205.10;103.53;;;;;;;;;;5004786;28;20429;-81
2021/12/24 12:43:20;;;;;;;179.68;94.00;;;;;;;;;;5009063;28;20032;-83
2021/12/24 12:45:47;;;;;;;200.02;97.15;;;;;;;;;;4992912;28;20458;-83
2021/12/24 12:48:23;;;;;;;225.45;106.90;;;;;;;;;;5004002;28;20040;-84
2021/12/24 12:50:55;;;;;;;203.82;103.50;;;;;;;;;;5009576;28;20034;-81
2021/12/24 12:53:33;;;;;;;222.20;106.55;;;;;;;;;;5011675;28;20026;-82
2021/12/24 12:56:13;;;;;;;217.98;105.15;;;;;;;;;;5005770;28;20105;-82
2021/12/24 12:58:40;;;;;;;208.38;96.53;;;;;;;;;;5006204;28;20428;-81
2021/12/24 13:01:10;;;;;;;186.10;95.05;;;;;;;;;;4992864;28;20481;-82
2021/12/24 13:03:57;;;;;;;177.90;88.20;;;;;;;;;;5005849;28;20172;-82
2021/12/24 13:06:24;;;;;;;171.38;82.68;;;;;;;;;;4996666;28;20034;-81
2021/12/24 13:08:51;;;;;;;177.10;89.53;;;;;;;;;;4988891;28;20500;-84
2021/12/24 13:11:20;;;;;;;198.30;91.75;;;;;;;;;;4991457;28;20045;-84
2021/12/24 13:13:55;;;;;;;193.30;97.47;;;;;;;;;;5008002;28;20034;-81
2021/12/24 13:16:24;;;;;;;196.95;93.97;;;;;;;;;;4985365;28;20017;-82
2021/12/24 13:18:57;;;;;;;215.15;101.97;;;;;;;;;;5030192;28;20026;-83
2021/12/24 13:24:10;;;;;;;229.68;108.13;;;;;;;;;;5043443;28;20065;-83
2021/12/24 13:26:36;;;;;;;214.82;100.78;;;;;;;;;;5039541;28;20093;-82
2021/12/24 13:29:12;;;;;;;227.55;104.70;;;;;;;;;;5037460;28;20465;-82
2021/12/24 13:31:39;;;;;;;229.00;104.65;;;;;;;;;;5023179;28;20038;-82
2021/12/24 13:34:09;;;;;;;222.00;105.70;;;;;;;;;;5022760;28;20465;-82
2021/12/24 13:36:36;;;;;;;221.10;106.50;;;;;;;;;;5010223;28;20030;-82
2021/12/24 13:39:12;;;;;;;229.90;102.10;;;;;;;;;;5026099;28;20029;-81
2021/12/24 13:41:40;;;;;;;223.18;103.03;;;;;;;;;;5022671;28;20671;-82
2021/12/24 13:44:07;;;;;;;246.85;117.53;;;;;;;;;;5023366;28;20500;-81
2021/12/24 13:46:37;;;;;;;263.75;124.47;;;;;;;;;;5023905;28;20034;-82
2021/12/24 13:49:18;;;;;;;259.70;121.50;;;;;;;;;;5026628;28;20462;-83
2021/12/24 13:54:37;;;;;;;252.70;129.63;;;;;;;;;;5027878;28;20036;-82
2021/12/24 13:57:06;;;;;;;230.40;120.25;;;;;;;;;;5026563;28;20083;-81
2021/12/24 13:59:34;;;;;;;243.07;125.05;;;;;;;;;;5037445;28;20025;-83
2021/12/24 14:02:00;;;;;;;233.10;126.30;;;;;;;;;;5034097;28;20056;-83
2021/12/24 14:04:26;;;;;;;259.73;130.90;;;;;;;;;;5032136;28;20235;-83
2021/12/24 14:06:56;;;;;;;285.80;141.45;;;;;;;;;;5012797;28;20388;-82
2021/12/24 14:09:25;;;;;;;309.10;145.63;;;;;;;;;;5013074;28;20061;-82
2021/12/24 14:11:53;;;;;;;290.45;139.32;;;;;;;;;;5029864;28;20030;-83
2021/12/24 14:14:25;;;;;;;273.42;135.70;;;;;;;;;;5030398;28;20100;-82
2021/12/24 14:17:22;;;;;;;195.00;88.90;;;;;;;;;;5029840;28;20128;-83
2021/12/24 14:22:23;;;;;;;148.73;63.67;;;;;;;;;;5027231;28;20546;-82
2021/12/24 14:24:50;;;;;;;151.18;67.20;;;;;;;;;;5030583;28;20025;-82
2021/12/24 14:27:18;;;;;;;155.95;66.93;;;;;;;;;;5030394;28;20068;-83
2021/12/24 14:29:46;;;;;;;161.70;71.88;;;;;;;;;;5012308;28;20079;-82
2021/12/24 14:32:12;;;;;;;170.23;75.65;;;;;;;;;;5008574;28;20048;-83
2021/12/24 14:34:52;;;;;;;162.18;74.78;;;;;;;;;;5008857;28;20057;-81
2021/12/24 14:37:25;;;;;;;158.20;66.88;;;;;;;;;;5028850;28;20859;-81
2021/12/24 14:40:00;;;;;;;140.38;60.75;;;;;;;;;;5007854;28;20038;-83
2021/12/24 14:42:28;;;;;;;142.25;57.28;;;;;;;;;;5030760;28;20045;-83
2021/12/24 14:44:56;;;;;;;140.55;57.95;;;;;;;;;;5030140;28;20030;-83
2021/12/24 14:47:27;;;;;;;137.77;58.90;;;;;;;;;;5030149;28;20029;-84
2021/12/24 14:50:07;;;;;;;139.60;64.15;;;;;;;;;;5008122;28;20087;-80
2021/12/24 14:52:34;;;;;;;139.00;66.90;;;;;;;;;;5028825;28;20476;-83
2021/12/24 14:55:11;;;;;;;137.10;64.00;;;;;;;;;;5024252;28;20030;-81
2021/12/24 14:57:58;;;;;;;136.10;61.67;;;;;;;;;;5010228;28;20033;-81
2021/12/24 15:00:34;;;;;;;135.82;62.20;;;;;;;;;;5031468;28;20040;-83
2021/12/24 15:03:05;;;;;;;147.82;64.63;;;;;;;;;;5030558;28;20416;-82
2021/12/24 15:05:39;;;;;;;135.27;60.33;;;;;;;;;;5012945;28;20056;-82
2021/12/24 15:08:13;;;;;;;145.88;58.75;;;;;;;;;;5027674;28;20369;-81
2021/12/24 15:10:40;;;;;;;246.50;108.55;;;;;;;;;;5029545;28;20045;-82
2021/12/24 15:13:15;;;;;;;154.55;68.75;;;;;;;;;;5026273;28;20358;-86
2021/12/24 15:15:48;;;;;;;140.85;62.35;;;;;;;;;;5012962;28;20112;-82
2021/12/24 15:18:14;;;;;;;151.00;65.65;;;;;;;;;;5030662;28;20096;-82
2021/12/24 15:20:40;;;;;;;153.13;66.43;;;;;;;;;;5032450;28;20036;-82
2021/12/24 15:23:07;;;;;;;164.02;71.68;;;;;;;;;;5011299;28;20095;-83
2021/12/24 15:25:34;;;;;;;147.68;67.20;;;;;;;;;;5013610;28;20044;-84
2021/12/24 15:28:07;;;;;;;158.63;67.63;;;;;;;;;;5025663;28;20064;-83
2021/12/24 15:30:33;;;;;;;149.68;69.47;;;;;;;;;;5027617;28;20045;-81
2021/12/24 15:33:00;;;;;;;154.50;71.88;;;;;;;;;;5028737;28;20447;-81
2021/12/24 15:35:26;;;;;;;164.18;76.85;;;;;;;;;;5027423;28;20080;-82
2021/12/24 15:37:52;;;;;;;162.45;78.03;;;;;;;;;;5029993;28;20029;-83
2021/12/24 15:40:19;;;;;;;175.25;78.30;;;;;;;;;;5029580;28;20033;-83
2021/12/24 15:42:45;;;;;;;164.68;76.82;;;;;;;;;;5013198;28;20072;-81
2021/12/24 15:45:11;;;;;;;166.93;77.00;;;;;;;;;;5029329;28;20737;-82
2021/12/24 15:47:38;;;;;;;168.82;76.00;;;;;;;;;;5028858;28;20036;-83
2021/12/24 15:50:04;;;;;;;149.23;64.32;;;;;;;;;;5024354;28;20425;-83
2021/12/24 15:52:31;;;;;;;140.88;63.70;;;;;;;;;;5028734;28;20076;-82
2021/12/24 15:54:57;;;;;;;147.38;62.55;;;;;;;;;;5028019;28;20377;-82
2021/12/24 15:57:23;;;;;;;139.77;63.65;;;;;;;;;;5010411;28;20034;-82
2021/12/24 15:59:50;;;;;;;135.00;64.20;;;;;;;;;;5027838;28;20018;-83
2021/12/24 16:02:16;;;;;;;145.65;65.93;;;;;;;;;;5029229;28;20072;-83
2021/12/24 16:04:42;;;;;;;164.75;74.13;;;;;;;;;;5031940;28;20483;-84
2021/12/24 16:07:09;;;;;;;151.57;68.32;;;;;;;;;;5011976;28;20645;-82
2021/12/24 16:09:36;;;;;;;147.68;65.93;;;;;;;;;;5028025;28;20032;-83
2021/12/24 16:12:02;;;;;;;144.82;65.35;;;;;;;;;;5023891;28;20552;-82
2021/12/24 16:14:29;;;;;;;136.57;63.53;;;;;;;;;;5032078;28;20030;-83